createdAt,value
2022-12-03T00:02:16.147Z,102204.50
2022-12-03T00:04:43.252Z,102203.81
2022-12-03T00:07:10.278Z,102171.59
2022-12-03T00:09:37.263Z,102173.34
2022-12-03T00:12:04.304Z,102198.13
2022-12-03T00:14:31.358Z,102205.50
2022-12-03T00:16:58.300Z,102201.88
2022-12-03T00:19:25.307Z,102191.28
2022-12-03T00:21:52.262Z,102213.41
2022-12-03T00:24:19.288Z,102182.00
2022-12-03T00:26:46.282Z,102194.53
2022-12-03T00:29:13.352Z,102190.47
2022-12-03T00:31:42.216Z,102157.41
2022-12-03T00:34:09.362Z,102205.69
2022-12-03T00:36:36.383Z,102212.13
2022-12-03T00:39:03.317Z,102215.38
2022-12-03T00:41:30.323Z,102221.88
2022-12-03T00:43:58.043Z,102213.34
2022-12-03T00:46:25.557Z,102187.53
2022-12-03T00:48:53.208Z,102203.16
2022-12-03T00:51:20.159Z,102194.25
2022-12-03T00:53:47.181Z,102184.63
2022-12-03T00:56:14.149Z,102223.44
2022-12-03T00:58:41.074Z,102200.69
2022-12-03T01:01:08.030Z,102224.53
2022-12-03T01:03:35.216Z,102226.34
2022-12-03T01:06:02.234Z,102219.75
2022-12-03T01:08:29.400Z,102236.50
2022-12-03T01:10:56.328Z,102197.72
2022-12-03T01:13:23.342Z,102247.78
2022-12-03T01:15:50.562Z,102218.19
2022-12-03T01:18:36.156Z,102241.84
2022-12-03T01:21:03.085Z,102238.19
2022-12-03T01:23:30.063Z,102220.78
2022-12-03T01:25:57.064Z,102235.94
2022-12-03T01:28:23.995Z,102225.66
2022-12-03T01:31:09.645Z,102245.34
2022-12-03T01:33:38.069Z,102233.97
2022-12-03T01:36:05.176Z,102243.31
2022-12-03T01:38:32.070Z,102238.75
2022-12-03T01:40:59.229Z,102213.44
2022-12-03T01:43:26.401Z,102223.28
2022-12-03T01:45:53.455Z,102229.19
2022-12-03T01:48:20.555Z,102251.28
2022-12-03T01:50:47.617Z,102248.63
2022-12-03T01:53:19.016Z,102246.75
2022-12-03T01:55:48.878Z,102261.91
2022-12-03T01:58:19.739Z,102256.63
2022-12-03T02:00:46.665Z,102249.56
2022-12-03T02:03:21.271Z,102245.88
2022-12-03T02:05:48.268Z,102255.06
2022-12-03T02:08:28.588Z,102261.69
2022-12-03T02:10:57.570Z,102229.00
2022-12-03T02:13:24.671Z,102253.53
2022-12-03T02:15:51.737Z,102233.19
2022-12-03T02:18:19.133Z,102261.34
2022-12-03T02:21:12.796Z,102263.66
2022-12-03T02:23:53.502Z,102266.19
2022-12-03T02:26:20.847Z,102257.47
2022-12-03T02:28:47.900Z,102263.44
2022-12-03T02:31:15.345Z,102250.41
2022-12-03T02:33:42.460Z,102258.84
2022-12-03T02:36:10.169Z,102262.09
2022-12-03T02:38:37.413Z,102256.81
2022-12-03T02:41:09.485Z,102224.06
2022-12-03T02:43:36.906Z,102257.56
2022-12-03T02:46:05.067Z,102257.63
2022-12-03T02:48:35.614Z,102259.44
2022-12-03T02:51:09.016Z,102251.94
2022-12-03T02:53:42.724Z,102262.19
2022-12-03T02:56:13.560Z,102249.66
2022-12-03T02:58:43.119Z,102239.78
2022-12-03T03:01:11.215Z,102255.84
2022-12-03T03:03:39.738Z,102276.72
2022-12-03T03:06:08.649Z,102264.94
2022-12-03T03:08:37.980Z,102267.25
2022-12-03T03:11:05.227Z,102271.63
2022-12-03T03:13:35.526Z,102255.88
2022-12-03T03:16:05.410Z,102277.78
2022-12-03T03:18:33.324Z,102263.06
2022-12-03T03:21:00.646Z,102269.97
2022-12-03T03:23:28.245Z,102243.44
2022-12-03T03:26:07.713Z,102278.94
2022-12-03T03:28:39.857Z,102288.41
2022-12-03T03:31:09.699Z,102290.22
2022-12-03T03:33:38.119Z,102296.88
2022-12-03T03:36:06.410Z,102293.47
2022-12-03T03:38:34.360Z,102299.94
2022-12-03T03:41:03.990Z,102303.66
2022-12-03T03:43:33.429Z,102287.63
2022-12-03T03:46:03.934Z,102298.59
2022-12-03T03:48:31.510Z,102306.66
2022-12-03T03:50:58.466Z,102287.63
2022-12-03T03:53:25.511Z,102302.81
2022-12-03T03:55:53.038Z,102257.50
2022-12-03T03:58:19.985Z,102296.72
2022-12-03T04:00:47.644Z,102290.50
2022-12-03T04:03:14.678Z,102305.69
2022-12-03T04:05:41.696Z,102314.94
2022-12-03T04:08:08.827Z,102312.66
2022-12-03T04:10:54.499Z,102305.41
2022-12-03T04:13:21.638Z,102311.88
2022-12-03T04:15:48.681Z,102293.97
2022-12-03T04:18:34.210Z,102318.31
2022-12-03T04:21:19.882Z,102323.59
2022-12-03T04:23:46.875Z,102301.81
2022-12-03T04:26:32.685Z,102326.56
2022-12-03T04:28:59.682Z,102310.28
2022-12-03T04:31:45.264Z,102313.25
2022-12-03T04:34:31.000Z,102278.88
2022-12-03T04:36:58.019Z,102337.06
2022-12-03T04:39:25.108Z,102330.16
2022-12-03T04:41:52.187Z,102311.09
2022-12-03T04:44:36.435Z,102331.09
2022-12-03T04:47:16.957Z,102340.25
2022-12-03T04:49:46.670Z,102287.09
2022-12-03T04:52:15.141Z,102321.03
2022-12-03T04:54:42.493Z,102331.81
2022-12-03T04:57:10.634Z,102348.53
2022-12-03T04:59:38.620Z,102350.38
2022-12-03T05:02:06.603Z,102345.78
2022-12-03T05:04:33.992Z,102325.13
2022-12-03T05:07:01.085Z,102333.81
2022-12-03T05:09:28.052Z,102337.88
2022-12-03T05:11:55.066Z,102332.16
2022-12-03T05:14:22.059Z,102350.47
2022-12-03T05:16:49.051Z,102351.81
2022-12-03T05:19:16.157Z,102320.88
2022-12-03T05:21:43.122Z,102354.25
2022-12-03T05:24:10.040Z,102344.16
2022-12-03T05:26:37.021Z,102349.16
2022-12-03T05:29:04.222Z,102340.94
2022-12-03T05:31:31.311Z,102348.44
2022-12-03T05:33:58.382Z,102353.75
2022-12-03T05:36:25.748Z,102367.69
2022-12-03T05:38:52.784Z,102345.81
2022-12-03T05:41:38.183Z,102350.00
2022-12-03T05:44:05.232Z,102365.53
2022-12-03T05:46:33.110Z,102354.91
2022-12-03T05:49:00.187Z,102340.66
2022-12-03T05:51:27.397Z,102366.25
2022-12-03T05:53:54.312Z,102352.03
2022-12-03T05:56:21.271Z,102377.00
2022-12-03T05:58:48.391Z,102373.50
2022-12-03T06:01:15.336Z,102370.25
2022-12-03T06:03:42.587Z,102372.97
2022-12-03T06:06:09.719Z,102336.19
2022-12-03T06:08:36.702Z,102371.97
2022-12-03T06:11:03.756Z,102370.06
2022-12-03T06:13:30.818Z,102356.72
2022-12-03T06:15:57.887Z,102363.81
2022-12-03T06:18:24.950Z,102358.75
2022-12-03T06:20:51.854Z,102365.25
2022-12-03T06:23:18.824Z,102368.41
2022-12-03T06:25:45.870Z,102343.13
2022-12-03T06:28:12.973Z,102299.47
2022-12-03T06:30:40.076Z,102360.31
2022-12-03T06:33:07.086Z,102320.00
2022-12-03T06:35:33.995Z,102327.78
2022-12-03T06:38:01.069Z,102353.28
2022-12-03T06:40:28.073Z,102357.34
2022-12-03T06:42:54.999Z,102345.88
2022-12-03T06:45:22.040Z,102357.00
2022-12-03T06:47:49.036Z,102340.03
2022-12-03T06:50:16.476Z,102355.59
2022-12-03T06:52:43.522Z,102353.16
2022-12-03T06:55:10.720Z,102343.84
2022-12-03T06:57:37.756Z,102354.09
2022-12-03T07:00:06.652Z,102343.16
2022-12-03T07:02:33.882Z,102337.78
2022-12-03T07:05:00.893Z,102352.22
2022-12-03T07:07:27.927Z,102331.50
2022-12-03T07:09:54.951Z,102347.03
2022-12-03T07:12:22.302Z,102349.00
2022-12-03T07:14:49.342Z,102329.38
2022-12-03T07:17:16.271Z,102331.91
2022-12-03T07:19:43.310Z,102338.63
2022-12-03T07:22:10.280Z,102344.94
2022-12-03T07:24:37.376Z,102324.91
2022-12-03T07:27:04.458Z,102343.19
2022-12-03T07:29:31.430Z,102349.59
2022-12-03T07:31:58.423Z,102340.03
2022-12-03T07:34:25.431Z,102327.31
2022-12-03T07:36:52.545Z,102342.75
2022-12-03T07:39:19.481Z,102335.72
2022-12-03T07:41:46.439Z,102340.13
2022-12-03T07:44:14.783Z,102324.88
2022-12-03T07:46:42.811Z,102330.25
2022-12-03T07:49:10.252Z,102326.47
2022-12-03T07:51:37.350Z,102333.78
2022-12-03T08:16:22.380Z,102335.31
2022-12-03T08:18:51.012Z,102321.34
2022-12-03T08:21:20.223Z,102334.22
2022-12-03T08:23:47.614Z,102320.09
2022-12-03T08:26:23.577Z,102305.94
2022-12-03T08:28:52.421Z,102300.44
2022-12-03T08:31:32.343Z,102326.09
2022-12-03T08:34:17.732Z,102325.69
2022-12-03T08:36:45.581Z,102302.00
2022-12-03T08:39:24.826Z,102324.75
2022-12-03T08:42:17.366Z,102258.19
2022-12-03T08:44:45.404Z,102332.03
2022-12-03T08:47:22.805Z,102331.91
2022-12-03T08:50:07.313Z,102298.53
2022-12-03T08:52:35.195Z,102330.28
2022-12-03T08:55:35.855Z,102334.50
2022-12-03T08:58:39.625Z,102334.38
2022-12-03T09:01:12.931Z,102335.84
2022-12-03T09:03:49.562Z,102324.53
2022-12-03T09:11:59.174Z,102333.94
2022-12-03T09:14:26.415Z,102277.69
2022-12-03T09:16:56.528Z,102338.31
2022-12-03T09:19:26.008Z,102330.69
2022-12-03T09:21:54.042Z,102330.69
2022-12-03T09:24:21.097Z,102321.97
2022-12-03T09:26:48.221Z,102307.63
2022-12-03T09:29:15.447Z,102340.53
2022-12-03T09:31:42.631Z,102332.91
2022-12-03T09:34:11.408Z,102310.97
2022-12-03T09:36:38.496Z,102337.28
2022-12-03T09:39:05.711Z,102330.41
2022-12-03T09:41:32.787Z,102300.56
2022-12-03T09:44:04.435Z,102316.22
2022-12-03T09:46:34.275Z,102285.59
2022-12-03T09:49:02.322Z,102298.16
2022-12-03T09:51:35.904Z,102316.94
2022-12-03T09:54:05.360Z,102300.84
2022-12-03T09:56:38.202Z,102329.75
2022-12-03T09:59:15.439Z,102332.50
2022-12-03T10:01:42.774Z,102324.66
2022-12-03T10:04:10.369Z,102322.09
2022-12-03T10:06:44.110Z,102309.69
2022-12-03T10:09:17.437Z,102321.25
2022-12-03T10:11:44.912Z,102307.91
2022-12-03T10:14:14.464Z,102310.09
2022-12-03T10:16:42.241Z,102292.41
2022-12-03T10:19:17.539Z,102300.44
2022-12-03T10:21:44.668Z,102300.28
2022-12-03T10:24:21.424Z,102309.56
2022-12-03T10:26:51.084Z,102313.78
2022-12-03T10:29:21.105Z,102297.53
2022-12-03T10:31:58.086Z,102249.03
2022-12-03T10:34:34.089Z,102316.34
2022-12-03T10:37:12.122Z,102319.47
2022-12-03T10:39:59.986Z,102316.72
2022-12-03T10:42:29.750Z,102321.66
2022-12-03T10:45:18.118Z,102312.75
2022-12-03T10:48:13.334Z,102323.72
2022-12-03T10:50:54.031Z,102322.25
2022-12-03T10:53:26.089Z,102320.44
2022-12-03T10:55:58.999Z,102322.63
2022-12-03T10:58:32.004Z,102326.66
2022-12-03T11:01:01.618Z,102329.94
2022-12-03T11:03:31.036Z,102313.91
2022-12-03T11:06:01.327Z,102326.66
2022-12-03T11:08:33.211Z,102323.38
2022-12-03T11:11:01.873Z,102307.84
2022-12-03T11:13:35.193Z,102334.69
2022-12-03T11:16:04.985Z,102328.53
2022-12-03T11:18:38.721Z,102325.25
2022-12-03T11:21:14.116Z,102321.03
2022-12-03T11:23:44.788Z,102333.44
2022-12-03T11:26:19.622Z,102300.41
2022-12-03T11:28:47.215Z,102324.16
2022-12-03T11:31:35.790Z,102327.78
2022-12-03T11:34:18.141Z,102320.88
2022-12-03T11:37:10.058Z,102328.34
2022-12-03T11:39:53.080Z,102325.97
2022-12-03T11:42:26.037Z,102326.91
2022-12-03T11:45:11.162Z,102314.31
2022-12-03T11:48:12.312Z,102325.63
2022-12-03T11:50:43.578Z,102307.38
2022-12-03T11:53:31.578Z,102319.41
2022-12-03T11:56:11.010Z,102321.28
2022-12-03T11:58:42.449Z,102295.34
2022-12-03T12:01:10.114Z,102323.28
2022-12-03T12:03:46.526Z,102301.91
2022-12-03T12:06:16.227Z,102326.56
2022-12-03T12:08:52.370Z,102317.47
2022-12-03T12:11:30.594Z,102324.56
2022-12-03T12:14:01.511Z,102327.47
2022-12-03T12:17:03.364Z,102329.31
2022-12-03T12:19:42.275Z,102326.03
2022-12-03T12:22:20.335Z,102337.91
2022-12-03T12:24:51.797Z,102327.13
2022-12-03T12:27:32.710Z,102315.06
2022-12-03T12:30:02.891Z,102332.97
2022-12-03T12:32:34.792Z,102331.34
2022-12-03T12:35:19.856Z,102331.13
2022-12-03T12:37:59.671Z,102299.38
2022-12-03T12:40:32.374Z,102296.63
2022-12-03T12:43:12.061Z,102293.72
2022-12-03T12:45:43.614Z,102315.44
2022-12-03T12:48:13.170Z,102334.41
2022-12-03T12:50:42.524Z,102326.38
2022-12-03T12:53:26.252Z,102324.56
2022-12-03T12:55:57.844Z,102341.34
2022-12-03T12:58:26.250Z,102308.84
2022-12-03T13:00:57.360Z,102329.66
2022-12-03T13:03:28.957Z,102331.13
2022-12-03T13:05:57.836Z,102322.00
2022-12-03T13:08:39.724Z,102331.84
2022-12-03T13:11:21.092Z,102286.59
2022-12-03T13:13:48.261Z,102333.28
2022-12-03T13:16:33.956Z,102340.44
2022-12-03T13:19:02.178Z,102323.03
2022-12-03T13:21:39.721Z,102330.91
2022-12-03T13:24:34.644Z,102336.75
2022-12-03T13:27:13.800Z,102338.56
2022-12-03T13:29:40.942Z,102317.03
2022-12-03T13:32:21.020Z,102307.22
2022-12-03T13:34:50.569Z,102346.81
2022-12-03T13:37:25.452Z,102328.56
2022-12-03T13:39:56.128Z,102339.13
2022-12-03T13:42:39.525Z,102330.94
2022-12-03T13:45:15.759Z,102338.38
2022-12-03T13:47:48.806Z,102355.41
2022-12-03T13:50:34.334Z,102357.41
2022-12-03T13:53:24.576Z,102353.75
2022-12-03T13:56:00.896Z,102355.56
2022-12-03T13:58:27.914Z,102355.56
2022-12-03T14:00:55.011Z,102339.13
2022-12-03T14:03:23.459Z,102361.59
2022-12-03T14:05:50.516Z,102332.56
2022-12-03T14:08:17.691Z,102350.44
2022-12-03T14:10:44.870Z,102360.69
2022-12-03T14:13:12.001Z,102351.56
2022-12-03T14:15:38.985Z,102357.75
2022-12-03T14:18:06.206Z,102339.50
2022-12-03T14:20:35.148Z,102348.06
2022-12-03T14:23:02.291Z,102347.19
2022-12-03T14:25:29.378Z,102318.50
2022-12-03T14:27:56.573Z,102363.59
2022-12-03T14:30:23.546Z,102354.09
2022-12-03T14:32:50.540Z,102371.28
2022-12-03T14:35:17.465Z,102349.72
2022-12-03T14:37:45.183Z,102366.53
2022-12-03T14:40:16.561Z,102343.50
2022-12-03T14:42:46.677Z,102354.63
2022-12-03T14:45:13.791Z,102365.06
2022-12-03T14:47:40.940Z,102363.22
2022-12-03T14:50:08.822Z,102364.31
2022-12-03T14:52:36.712Z,102376.00
2022-12-03T14:55:04.086Z,102358.78
2022-12-03T14:57:31.086Z,102372.13
2022-12-03T14:59:58.147Z,102352.44
2022-12-03T15:02:25.210Z,102369.38
2022-12-03T15:04:52.354Z,102371.22
2022-12-03T15:07:19.374Z,102343.69
2022-12-03T15:09:46.551Z,102366.81
2022-12-03T15:12:13.707Z,102364.44
2022-12-03T15:14:41.471Z,102360.97
2022-12-03T15:17:08.574Z,102373.75
2022-12-03T15:19:35.627Z,102350.03
2022-12-03T15:22:02.633Z,102351.47
2022-12-03T15:24:29.658Z,102378.69
2022-12-03T15:26:56.923Z,102374.47
2022-12-03T15:29:24.052Z,102382.88
2022-12-03T15:31:51.274Z,102375.94
2022-12-03T15:34:22.570Z,102381.06
2022-12-03T15:36:50.461Z,102365.38
2022-12-03T15:39:17.496Z,102394.22
2022-12-03T15:41:44.548Z,102391.69
2022-12-03T15:44:11.614Z,102365.38
2022-12-03T15:46:38.607Z,102371.28
2022-12-03T15:49:05.680Z,102398.84
2022-12-03T15:51:33.321Z,102391.91
2022-12-03T15:54:00.417Z,102387.75
2022-12-03T15:56:27.410Z,102382.63
2022-12-03T15:58:54.411Z,102398.53
2022-12-03T16:01:21.787Z,102397.22
2022-12-03T16:03:48.833Z,102387.75
2022-12-03T16:06:18.270Z,102393.59
2022-12-03T16:08:45.364Z,102390.31
2022-12-03T16:11:12.418Z,102402.38
2022-12-03T16:13:39.486Z,102399.44
2022-12-03T16:16:06.879Z,102406.38
2022-12-03T16:18:33.971Z,102420.63
2022-12-03T16:21:01.125Z,102392.31
2022-12-03T16:23:28.250Z,102407.31
2022-12-03T16:25:55.384Z,102404.56
2022-12-03T16:28:22.500Z,102361.09
2022-12-03T16:30:49.650Z,102396.50
2022-12-03T16:33:16.872Z,102408.75
2022-12-03T16:35:44.756Z,102408.41
2022-12-03T16:38:11.787Z,102401.09
2022-12-03T16:40:38.850Z,102363.66
2022-12-03T16:43:05.883Z,102411.13
2022-12-03T16:46:01.902Z,102414.06
2022-12-03T16:48:30.316Z,102412.22
2022-12-03T16:50:57.558Z,102402.53
2022-12-03T16:53:24.758Z,102393.75
2022-12-03T16:55:51.960Z,102410.94
2022-12-03T16:58:21.486Z,102389.53
2022-12-03T17:00:49.618Z,102405.25
2022-12-03T17:03:18.160Z,102396.09
2022-12-03T17:05:46.230Z,102419.50
2022-12-03T17:08:14.393Z,102416.03
2022-12-03T17:10:41.924Z,102398.13
2022-12-03T17:13:10.315Z,102377.69
2022-12-03T17:15:38.396Z,102412.53
2022-12-03T17:18:06.263Z,102408.16
2022-12-03T17:20:33.879Z,102406.16
2022-12-03T17:23:01.489Z,102406.34
2022-12-03T17:25:28.795Z,102398.31
2022-12-03T17:27:56.077Z,102405.25
2022-12-03T17:30:23.083Z,102410.34
2022-12-03T17:32:50.581Z,102398.31
2022-12-03T17:35:18.024Z,102407.63
2022-12-03T17:37:45.506Z,102408.53
2022-12-03T17:40:14.134Z,102411.44
2022-12-03T17:42:41.289Z,102391.34
2022-12-03T17:45:09.133Z,102414.72
2022-12-03T17:47:36.165Z,102412.91
2022-12-03T17:50:03.416Z,102411.59
2022-12-03T17:52:30.528Z,102428.59
2022-12-03T17:55:18.050Z,102410.34
2022-12-03T17:57:44.883Z,102421.66
2022-12-03T18:00:12.664Z,102415.47
2022-12-03T18:02:40.705Z,102417.63
2022-12-03T18:05:08.147Z,102418.03
2022-12-03T18:07:35.364Z,102417.63
2022-12-03T18:10:02.741Z,102424.22
2022-12-03T18:12:30.908Z,102428.03
2022-12-03T18:14:58.064Z,102424.94
2022-12-03T18:17:25.328Z,102423.44
2022-12-03T18:19:52.837Z,102422.00
2022-12-03T18:22:20.746Z,102399.00
2022-12-03T18:24:51.576Z,102439.19
2022-12-03T18:27:21.323Z,102428.97
2022-12-03T18:29:49.065Z,102427.31
2022-12-03T18:32:28.294Z,102405.56
2022-12-03T18:34:57.927Z,102424.94
2022-12-03T18:37:29.346Z,102432.97
2022-12-03T18:39:58.456Z,102421.28
2022-12-03T18:42:26.067Z,102400.97
2022-12-03T18:44:55.681Z,102432.97
2022-12-03T18:47:25.655Z,102432.03
2022-12-03T18:49:53.822Z,102432.97
2022-12-03T18:52:23.196Z,102430.38
2022-12-03T18:54:50.391Z,102426.34
2022-12-03T18:57:18.032Z,102441.72
2022-12-03T18:59:45.273Z,102442.44
2022-12-03T19:02:38.658Z,102451.00
2022-12-03T19:05:04.471Z,102447.91
2022-12-03T19:07:32.062Z,102433.66
2022-12-03T19:09:59.251Z,102427.47
2022-12-03T19:12:26.638Z,102429.09
2022-12-03T19:14:53.844Z,102443.50
2022-12-03T19:17:21.869Z,102433.47
2022-12-03T19:19:51.119Z,102450.31
2022-12-03T19:22:22.345Z,102441.38
2022-12-03T19:24:50.542Z,102462.19
2022-12-03T19:27:17.665Z,102455.22
2022-12-03T19:29:48.363Z,102429.25
2022-12-03T19:32:15.950Z,102463.63
2022-12-03T19:34:43.138Z,102450.50
2022-12-03T19:37:10.372Z,102469.84
2022-12-03T19:39:37.586Z,102465.88
2022-12-03T19:42:04.809Z,102439.91
2022-12-03T19:44:32.016Z,102460.75
2022-12-03T19:46:59.006Z,102440.97
2022-12-03T19:49:27.372Z,102439.53
2022-12-03T19:51:54.636Z,102437.88
2022-12-03T19:54:21.724Z,102461.47
2022-12-03T19:56:49.167Z,102459.44
2022-12-03T19:59:19.156Z,102447.03
2022-12-03T20:01:46.450Z,102447.41
2022-12-03T20:04:14.058Z,102441.75
2022-12-03T20:06:41.581Z,102451.63
2022-12-03T20:09:12.205Z,102464.41
2022-12-03T20:11:41.109Z,102462.97
2022-12-03T20:14:11.400Z,102432.22
2022-12-03T20:16:38.518Z,102447.59
2022-12-03T20:19:07.968Z,102461.69
2022-12-03T20:21:36.718Z,102434.78
2022-12-03T20:24:04.861Z,102467.34
2022-12-03T20:26:32.514Z,102455.63
2022-12-03T20:29:00.178Z,102456.34
2022-12-03T20:31:30.468Z,102459.84
2022-12-03T20:34:00.799Z,102444.84
2022-12-03T20:36:29.566Z,102448.88
2022-12-03T20:38:58.977Z,102454.75
2022-12-03T20:41:26.394Z,102451.44
2022-12-03T20:43:53.909Z,102454.75
2022-12-03T20:46:23.786Z,102438.47
2022-12-03T20:48:50.769Z,102438.66
2022-12-03T20:51:19.962Z,102456.56
2022-12-03T20:53:48.022Z,102469.88
2022-12-03T20:56:24.125Z,102458.75
2022-12-03T20:58:51.271Z,102448.72
2022-12-03T21:01:24.229Z,102468.44
2022-12-03T21:03:53.846Z,102466.09
2022-12-03T21:06:22.017Z,102461.50
2022-12-03T21:08:49.157Z,102449.81
2022-12-03T21:11:19.366Z,102457.66
2022-12-03T21:13:47.364Z,102445.06
2022-12-03T21:16:17.622Z,102455.28
2022-12-03T21:18:44.958Z,102454.00
2022-12-03T21:21:13.420Z,102465.88
2022-12-03T21:23:40.813Z,102459.84
2022-12-03T21:26:10.901Z,102458.94
2022-12-03T21:28:38.609Z,102464.03
2022-12-03T21:31:08.602Z,102468.78
2022-12-03T21:33:35.820Z,102469.47
2022-12-03T21:36:03.411Z,102462.19
2022-12-03T21:38:32.147Z,102448.63
2022-12-03T21:40:59.468Z,102459.59
2022-12-03T21:43:27.177Z,102457.41
2022-12-03T21:45:54.363Z,102453.38
2022-12-03T21:48:22.081Z,102458.44
2022-12-03T21:51:00.408Z,102435.41
2022-12-03T21:53:28.602Z,102459.56
2022-12-03T21:55:55.733Z,102449.25
2022-12-03T21:58:22.772Z,102468.66
2022-12-03T22:00:49.873Z,102430.25
2022-12-03T22:03:17.096Z,102434.63
2022-12-03T22:05:44.285Z,102467.19
2022-12-03T22:08:11.310Z,102460.22
2022-12-03T22:10:38.396Z,102462.38
2022-12-03T22:13:05.415Z,102449.75
2022-12-03T22:15:32.595Z,102465.59
2022-12-03T22:17:59.660Z,102445.47
2022-12-03T22:20:27.522Z,102472.13
2022-12-03T22:22:54.557Z,102440.13
2022-12-03T22:25:21.624Z,102470.22
2022-12-03T22:27:48.677Z,102469.09
2022-12-03T22:30:15.765Z,102454.03
2022-12-03T22:32:42.763Z,102470.09
2022-12-03T22:35:09.820Z,102474.25
2022-12-03T22:37:36.923Z,102470.22
2022-12-03T22:40:04.932Z,102468.53
2022-12-03T22:42:32.013Z,102457.66
2022-12-03T22:44:58.978Z,102472.84
2022-12-03T22:47:25.955Z,102474.81
2022-12-03T22:49:53.016Z,102478.59
2022-12-03T22:52:20.164Z,102476.00
2022-12-03T22:54:47.161Z,102484.34
2022-12-03T22:57:14.194Z,102458.72
2022-12-03T22:59:41.122Z,102470.63
2022-12-03T23:02:08.216Z,102475.84
2022-12-03T23:04:35.202Z,102481.88
2022-12-03T23:07:02.245Z,102479.63
2022-12-03T23:09:29.277Z,102484.75
2022-12-03T23:11:56.212Z,102471.03
2022-12-03T23:14:23.146Z,102475.72
2022-12-03T23:16:50.071Z,102479.38
2022-12-03T23:19:19.994Z,102489.19
2022-12-03T23:21:47.025Z,102486.94
2022-12-03T23:24:14.014Z,102468.81
2022-12-03T23:26:41.353Z,102486.13
2022-12-03T23:29:08.689Z,102493.09
2022-12-03T23:31:36.248Z,102478.44
2022-12-03T23:34:04.285Z,102484.06
2022-12-03T23:36:32.882Z,102491.69
2022-12-03T23:39:00.014Z,102490.03
2022-12-03T23:41:27.180Z,102482.72
2022-12-03T23:43:54.373Z,102491.69
2022-12-03T23:46:24.785Z,102473.50
2022-12-03T23:48:52.540Z,102493.41
2022-12-03T23:51:22.362Z,102482.75
2022-12-03T23:53:49.549Z,102461.00
2022-12-03T23:56:21.994Z,102479.28
2022-12-03T23:58:49.028Z,102496.28
